Juneau, AK

8:18 PM AKST on December 24, 2014 (GMT -0900)
Juneau International | Change Station
CLOSE
Current Station
Airport
Location: Juneau,
Elevation: 23 ft
Nearby Weather Stations

Elev 23 ft 58.35 °N, 134.58 °W | Updated 25 minutes ago

Overcast
Overcast
35 °F
Feels Like 27 °F
N
10
Wind Variable Wind from East

Today
High -- | Low -- °F
--% Chance of Precip.
Yesterday
High -- | Low -- °F
Precip. -- in
8:46 AM 3:09 PM
Waxing Crescent, 13% visible
Pressure 29.90 in
Visibility 10.0 miles
Clouds Few 700 ft
Mostly Cloudy 3400 ft
Overcast 4500 ft
Windchill 27 °F
Dew Point 32 °F
Humidity 89%
Rainfall 0.01 in
Snow Depth Not available.
UV 0 out of 12
Pollen Not available.
Air Quality Not available.
Flu Activity Not available.
METAR PAJN 250453Z 08009KT 10SM FEW007 BKN034 OVC045 02/00 A2990 RMK AO2 SLP124 T00170000

More Conditions Fewer Conditions

Pressure 29.90 in
Visibility 10.0 miles
Clouds Few 700 ft
Mostly Cloudy 3400 ft
Overcast 4500 ft
Windchill 27 °F
Dew Point 32 °F
Humidity 89%
Rainfall 0.01 in
Snow Depth Not available.
UV 0 out of 12
Pollen Not available.
Air Quality Not available.
Flu Activity Not available.
METAR PAJN 250453Z 08009KT 10SM FEW007 BKN034 OVC045 02/00 A2990 RMK AO2 SLP124 T00170000

More Conditions Fewer Conditions

10-Day Weather Forecast

Almanac

Astronomy

Dec. 24, 2014 Rise Set
Actual Time
Civil Twilight
Nautical Twilight
Astronomical Twilight
Moon
Length of Visible Light
Length of Day
Tomorrow will be .
, % of the Moon is Illuminated

Today's Extremes

State Highs State Lows

Community

WunderPhotos

Upload Photos

1,780,244 photos uploaded!

WunderBlogs® & News

Nearby

Air Quality

  Air Quality AQ Index Pollutant
Not available.

Snow Depth

Station Depth Elevation

Earthquake Activity

City Distance Mag. Time & Date
Minimum magnitude displayed is 2.5.

Coastal Water Temperatures

Place Temperature

Nearby Weather Stations